Time;durP1;ratioP1;P1;durP2;ratioP2;P2;SDS_P1;SDS_P2;PMS_P1;PMS_P2;Temp;Humidity;BMP_temperature;BMP_pressure;BME280_temperature;BME280_humidity;BME280_pressure;Samples;Min_cycle;Max_cycle;Signal;HPM_P1;HPM_P2
2021/07/14 00:02:12;;;;;;;57.85;31.10;;;19.50;99.90;;;;;;5051629;28;20410;-84
2021/07/14 00:04:40;;;;;;;61.80;31.80;;;19.50;99.90;;;;;;5035341;28;20490;-85
2021/07/14 00:07:07;;;;;;;56.10;30.40;;;19.40;99.90;;;;;;5051352;28;20045;-84
2021/07/14 00:09:34;;;;;;;60.10;31.42;;;19.50;99.90;;;;;;5050647;28;20516;-85
2021/07/14 00:12:04;;;;;;;60.70;32.35;;;19.50;99.90;;;;;;5051460;28;20049;-85
2021/07/14 00:22:39;;;;;;;63.05;32.72;;;19.50;99.90;;;;;;5053958;28;20406;-85
2021/07/14 00:25:11;;;;;;;56.83;32.20;;;19.40;99.90;;;;;;5035083;28;20464;-85
2021/07/14 00:27:43;;;;;;;63.13;33.15;;;19.50;99.90;;;;;;5051176;28;20425;-85
2021/07/14 00:30:15;;;;;;;54.28;31.20;;;19.50;99.90;;;;;;5035492;28;20053;-84
2021/07/14 00:32:42;;;;;;;65.22;33.33;;;19.50;99.90;;;;;;5050782;28;20050;-84
2021/07/14 00:35:14;;;;;;;61.15;31.90;;;19.50;99.90;;;;;;5034378;28;20060;-84
2021/07/14 00:37:41;;;;;;;61.10;33.05;;;19.50;99.90;;;;;;5034500;28;20490;-85
2021/07/14 00:40:11;;;;;;;69.72;36.70;;;19.50;99.90;;;;;;5034590;28;20052;-85
2021/07/14 00:42:38;;;;;;;64.45;36.45;;;19.50;99.90;;;;;;5034073;28;20049;-85
2021/07/14 00:45:06;;;;;;;60.22;35.90;;;19.50;99.90;;;;;;5050713;28;20069;-84
2021/07/14 00:47:35;;;;;;;62.53;36.10;;;19.50;99.90;;;;;;5050519;28;20071;-84
2021/07/14 00:50:06;;;;;;;65.68;36.95;;;19.50;99.90;;;;;;5034931;28;20049;-85
2021/07/14 00:52:33;;;;;;;67.07;35.53;;;19.50;99.90;;;;;;5050483;28;20046;-85
2021/07/14 00:55:03;;;;;;;58.55;33.53;;;19.60;99.90;;;;;;5034434;28;20037;-85
2021/07/14 00:57:31;;;;;;;59.17;35.25;;;19.60;99.90;;;;;;5050276;28;20406;-84
2021/07/14 00:59:58;;;;;;;63.28;36.28;;;19.60;99.90;;;;;;5034346;28;20041;-84
2021/07/14 01:02:26;;;;;;;67.78;35.25;;;19.60;99.90;;;;;;5034109;28;20055;-84
2021/07/14 01:05:08;;;;;;;59.38;34.50;;;19.50;99.90;;;;;;5018217;28;20045;-84
2021/07/14 01:07:41;;;;;;;63.47;35.00;;;19.50;99.90;;;;;;5050064;28;20052;-84
2021/07/14 01:10:29;;;;;;;63.88;34.97;;;19.60;99.90;;;;;;5067315;28;20564;-84
2021/07/14 01:13:24;;;;;;;65.57;35.88;;;19.50;99.90;;;;;;5041508;28;20509;-85
2021/07/14 01:15:57;;;;;;;68.95;35.13;;;19.50;99.90;;;;;;5034252;28;20462;-84
2021/07/14 01:18:30;;;;;;;66.82;35.67;;;19.50;99.90;;;;;;5034132;28;20054;-85
2021/07/14 01:21:06;;;;;;;72.35;37.20;;;19.50;99.90;;;;;;5050551;28;20044;-85
2021/07/14 01:24:03;;;;;;;62.45;36.20;;;19.50;99.90;;;;;;5050206;28;20406;-84
2021/07/14 01:26:55;;;;;;;67.30;37.25;;;19.50;99.90;;;;;;5049767;28;20045;-84
2021/07/14 01:29:23;;;;;;;68.57;36.28;;;19.40;99.90;;;;;;5050245;28;20128;-84
2021/07/14 01:31:52;;;;;;;67.10;36.00;;;19.40;99.90;;;;;;5049720;28;20053;-84
2021/07/14 01:34:21;;;;;;;76.32;37.80;;;19.40;99.90;;;;;;5033758;28;20182;-84
2021/07/14 01:36:52;;;;;;;62.03;35.35;;;19.50;99.90;;;;;;5049380;28;20037;-84
2021/07/14 01:39:19;;;;;;;61.00;34.58;;;19.40;99.90;;;;;;5050185;28;20046;-85
2021/07/14 01:41:49;;;;;;;62.67;34.58;;;19.40;99.90;;;;;;5033102;28;20045;-85
2021/07/14 01:44:17;;;;;;;58.05;34.85;;;19.40;99.90;;;;;;5034140;28;20046;-84
2021/07/14 01:46:46;;;;;;;65.68;34.10;;;19.40;99.90;;;;;;5033555;28;20124;-84
2021/07/14 01:49:17;;;;;;;54.20;32.60;;;19.50;99.90;;;;;;5018234;28;20052;-84
2021/07/14 01:51:56;;;;;;;58.88;35.28;;;19.50;99.90;;;;;;5050088;28;20413;-84
2021/07/14 01:54:25;;;;;;;57.63;32.47;;;19.50;99.90;;;;;;5049923;28;20570;-83
2021/07/14 01:56:53;;;;;;;46.70;31.23;;;19.40;99.90;;;;;;5042454;28;20048;-85
2021/07/14 01:59:22;;;;;;;49.38;30.33;;;19.40;99.90;;;;;;5050156;28;20124;-89
2021/07/14 02:01:51;;;;;;;46.22;29.08;;;19.40;99.90;;;;;;5050807;28;20497;-88
2021/07/14 02:04:30;;;;;;;56.45;29.85;;;19.40;99.90;;;;;;5068329;28;20045;-89
2021/07/14 02:07:12;;;;;;;46.53;28.60;;;19.40;99.90;;;;;;5051426;28;20037;-89
2021/07/14 02:09:40;;;;;;;47.90;29.65;;;19.40;99.90;;;;;;5066665;28;20041;-88
2021/07/14 02:12:20;;;;;;;40.45;26.85;;;19.40;99.90;;;;;;5051140;28;20050;-89
2021/07/14 02:15:11;;;;;;;42.80;27.55;;;19.40;99.90;;;;;;5051353;28;20395;-89
2021/07/14 02:17:56;;;;;;;38.55;24.23;;;19.40;99.90;;;;;;5050633;28;20109;-91
2021/07/14 02:20:26;;;;;;;42.90;27.08;;;19.40;99.90;;;;;;5050920;28;20053;-89
2021/07/14 02:22:53;;;;;;;41.63;26.92;;;19.40;99.90;;;;;;5050162;28;20111;-89
2021/07/14 02:25:22;;;;;;;44.88;26.42;;;19.40;99.90;;;;;;5042634;28;20048;-89
2021/07/14 02:27:49;;;;;;;48.72;27.80;;;19.40;99.90;;;;;;5034654;28;20064;-91
2021/07/14 02:30:19;;;;;;;47.45;29.00;;;19.40;99.90;;;;;;5051370;28;20045;-92
2021/07/14 02:32:49;;;;;;;50.05;30.55;;;19.40;99.90;;;;;;5050560;28;20053;-90
2021/07/14 02:35:17;;;;;;;45.97;28.77;;;19.40;99.90;;;;;;5034876;28;20056;-90
2021/07/14 02:38:01;;;;;;;53.45;29.40;;;19.40;99.90;;;;;;5051133;28;20049;-90
2021/07/14 02:40:28;;;;;;;48.08;29.88;;;19.40;99.90;;;;;;5051262;28;20041;-88
2021/07/14 02:42:57;;;;;;;60.50;33.03;;;19.30;99.90;;;;;;5050503;28;20069;-89
2021/07/14 02:45:28;;;;;;;58.85;31.42;;;19.30;99.90;;;;;;5068301;28;20048;-91
2021/07/14 02:47:59;;;;;;;65.05;34.88;;;19.30;99.90;;;;;;5053260;28;20102;-90
2021/07/14 02:50:32;;;;;;;58.88;33.13;;;19.30;99.90;;;;;;5046874;28;20060;-91
2021/07/14 02:53:10;;;;;;;63.60;34.85;;;19.30;99.90;;;;;;5044871;28;20053;-92
2021/07/14 02:55:40;;;;;;;72.88;37.00;;;19.20;99.90;;;;;;5054486;28;20045;-90
2021/07/14 02:58:08;;;;;;;74.15;37.30;;;19.20;99.90;;;;;;5052432;28;20054;-90
2021/07/14 03:00:40;;;;;;;79.70;36.63;;;19.20;99.90;;;;;;5035616;28;20069;-91
2021/07/14 03:03:09;;;;;;;73.97;37.05;;;19.20;99.90;;;;;;5051199;28;20046;-89
2021/07/14 03:05:58;;;;;;;84.45;37.47;;;19.20;99.90;;;;;;5054430;28;20045;-92
2021/07/14 03:08:30;;;;;;;81.40;39.30;;;19.30;99.90;;;;;;5054722;28;20045;-92
2021/07/14 03:10:59;;;;;;;78.13;36.85;;;19.20;99.90;;;;;;5037706;28;20378;-93
2021/07/14 03:13:29;;;;;;;79.57;38.42;;;19.20;99.90;;;;;;5038504;28;20053;-91
2021/07/14 03:15:58;;;;;;;73.30;37.80;;;19.20;99.90;;;;;;5037971;28;20049;-90
2021/07/14 03:18:28;;;;;;;80.65;38.55;;;19.20;99.90;;;;;;5022756;28;20133;-91
2021/07/14 03:20:57;;;;;;;68.28;37.28;;;19.20;99.90;;;;;;5038004;28;20045;-91
2021/07/14 03:23:27;;;;;;;84.10;38.22;;;19.20;99.90;;;;;;5022152;28;20072;-91
2021/07/14 03:25:58;;;;;;;73.30;37.60;;;19.20;99.90;;;;;;5037948;28;20060;-90
2021/07/14 03:28:34;;;;;;;72.40;37.92;;;19.20;99.90;;;;;;5038623;28;20060;-92
2021/07/14 03:31:04;;;;;;;78.72;38.47;;;19.20;99.90;;;;;;5037783;28;20045;-93
2021/07/14 03:33:35;;;;;;;73.53;37.60;;;19.10;99.90;;;;;;5028502;28;20046;-92
2021/07/14 03:36:07;;;;;;;62.75;35.97;;;19.20;99.90;;;;;;5036642;28;20081;-93
2021/07/14 03:38:35;;;;;;;66.07;35.10;;;19.20;99.90;;;;;;5037715;28;20490;-89
2021/07/14 03:41:03;;;;;;;66.70;36.50;;;19.20;99.90;;;;;;5037127;28;20489;-94
2021/07/14 03:43:32;;;;;;;66.90;37.08;;;19.20;99.90;;;;;;5021795;28;20168;-95
2021/07/14 03:46:06;;;;;;;70.80;37.05;;;19.20;99.90;;;;;;5049990;28;20080;-93
2021/07/14 03:48:34;;;;;;;71.03;37.13;;;19.20;99.90;;;;;;5069952;28;20045;-89
2021/07/14 03:51:11;;;;;;;65.53;36.70;;;19.10;99.90;;;;;;5055396;28;20052;-92
2021/07/14 03:53:40;;;;;;;62.33;36.33;;;19.10;99.90;;;;;;5066119;28;20126;-93
2021/07/14 03:56:15;;;;;;;68.65;37.88;;;19.20;99.90;;;;;;5053846;28;20474;-94
2021/07/14 03:58:44;;;;;;;73.38;37.58;;;19.20;99.90;;;;;;5041017;28;20051;-90
2021/07/14 04:01:12;;;;;;;68.03;36.97;;;19.20;99.90;;;;;;5053810;28;20045;-95
2021/07/14 04:03:40;;;;;;;63.58;35.90;;;19.20;99.90;;;;;;5024341;28;20111;-91
2021/07/14 04:06:08;;;;;;;69.53;36.42;;;19.10;99.90;;;;;;5051548;28;20045;-90
2021/07/14 04:08:42;;;;;;;71.70;37.13;;;19.20;99.90;;;;;;5017909;28;20056;-92
2021/07/14 04:11:11;;;;;;;68.50;36.00;;;19.10;99.90;;;;;;5050062;28;20089;-93
2021/07/14 04:13:49;;;;;;;72.43;38.05;;;19.10;99.90;;;;;;5043802;28;20499;-90
2021/07/14 04:16:16;;;;;;;66.93;36.72;;;19.20;99.90;;;;;;5034162;28;20482;-91
2021/07/14 04:18:43;;;;;;;69.43;34.67;;;19.10;99.90;;;;;;5017537;28;20056;-91
2021/07/14 04:21:10;;;;;;;65.70;36.38;;;19.10;99.90;;;;;;5031330;28;20470;-90
2021/07/14 04:23:37;;;;;;;74.68;38.22;;;19.10;99.90;;;;;;5034363;28;20054;-91
2021/07/14 04:26:05;;;;;;;63.28;36.83;;;19.10;99.90;;;;;;5052696;28;20041;-94
2021/07/14 04:28:33;;;;;;;72.22;35.63;;;19.10;99.90;;;;;;5053949;28;20048;-92
2021/07/14 04:31:02;;;;;;;61.28;34.85;;;19.10;99.90;;;;;;5036702;28;20053;-92
2021/07/14 04:33:32;;;;;;;63.55;34.97;;;19.10;99.90;;;;;;5052535;28;20038;-91
2021/07/14 04:35:59;;;;;;;60.40;33.92;;;19.10;99.90;;;;;;5036380;28;20056;-92
2021/07/14 04:38:29;;;;;;;57.92;33.95;;;19.10;99.90;;;;;;5052849;28;20072;-90
2021/07/14 04:40:58;;;;;;;64.18;35.33;;;19.10;99.90;;;;;;5020413;28;20077;-92
2021/07/14 04:43:26;;;;;;;54.72;33.35;;;19.20;99.90;;;;;;5026831;28;20072;-93
2021/07/14 04:45:55;;;;;;;60.65;34.80;;;19.20;99.90;;;;;;5035684;28;20482;-91
2021/07/14 04:48:22;;;;;;;56.22;32.97;;;19.20;99.90;;;;;;5036369;28;20080;-91
2021/07/14 04:50:49;;;;;;;49.03;31.90;;;19.20;99.90;;;;;;5048122;28;20490;-95
2021/07/14 04:53:16;;;;;;;50.13;31.50;;;19.30;99.90;;;;;;5044550;28;20049;-92
2021/07/14 04:55:44;;;;;;;52.38;31.55;;;19.30;99.90;;;;;;5053081;28;20103;-92
2021/07/14 04:58:11;;;;;;;50.85;32.75;;;19.30;99.90;;;;;;5043833;28;20072;-92
2021/07/14 05:00:38;;;;;;;53.35;31.90;;;19.30;99.90;;;;;;5026965;28;20132;-90
2021/07/14 05:03:05;;;;;;;52.33;34.30;;;19.30;99.90;;;;;;5077561;28;20125;-91
2021/07/14 05:05:32;;;;;;;50.05;30.83;;;19.30;99.90;;;;;;5040823;28;20492;-91
2021/07/14 05:07:59;;;;;;;49.65;32.38;;;19.40;99.90;;;;;;5052628;28;20109;-89
2021/07/14 05:10:31;;;;;;;49.15;31.48;;;19.40;99.90;;;;;;5040310;28;20810;-90
2021/07/14 05:12:59;;;;;;;57.03;32.47;;;19.40;99.90;;;;;;5060930;28;20049;-91
2021/07/14 05:15:29;;;;;;;55.42;31.17;;;19.30;99.90;;;;;;5038880;28;20489;-93
2021/07/14 05:18:00;;;;;;;52.75;30.38;;;19.40;99.90;;;;;;5053977;28;20049;-92
2021/07/14 05:20:28;;;;;;;42.70;29.70;;;19.40;99.90;;;;;;5055578;28;20056;-92
2021/07/14 05:22:55;;;;;;;48.20;30.42;;;19.30;99.90;;;;;;5045698;28;20472;-91
2021/07/14 05:25:22;;;;;;;58.78;32.13;;;19.30;99.90;;;;;;5042971;28;20101;-92
2021/07/14 05:27:52;;;;;;;50.72;31.08;;;19.40;99.90;;;;;;5020870;28;20050;-92
2021/07/14 05:30:20;;;;;;;46.85;29.83;;;19.40;99.90;;;;;;5038007;28;20059;-95
2021/07/14 05:32:47;;;;;;;43.03;28.00;;;19.40;99.90;;;;;;5037087;28;20097;-91
2021/07/14 05:35:14;;;;;;;39.70;28.02;;;19.30;99.90;;;;;;5051327;28;20101;-93
2021/07/14 05:37:42;;;;;;;37.00;26.83;;;19.40;99.90;;;;;;5052276;28;20038;-93
2021/07/14 05:40:10;;;;;;;40.72;27.48;;;19.40;99.90;;;;;;5051517;28;20406;-92
2021/07/14 05:42:37;;;;;;;43.08;27.13;;;19.40;99.90;;;;;;5035829;28;20068;-92
2021/07/14 05:45:06;;;;;;;45.80;26.67;;;19.40;99.90;;;;;;5028355;28;20136;-92
2021/07/14 05:47:36;;;;;;;42.33;25.10;;;19.40;99.90;;;;;;5040600;28;20124;-94
2021/07/14 05:50:05;;;;;;;40.60;25.75;;;19.40;99.90;;;;;;5037086;28;20050;-92
2021/07/14 05:52:38;;;;;;;42.25;26.67;;;19.40;99.90;;;;;;5055390;28;20485;-91
2021/07/14 05:55:10;;;;;;;;;;;19.50;99.90;;;;;;5040651;28;20069;-95
2021/07/14 05:57:39;;;;;;;37.42;26.98;;;19.40;99.90;;;;;;5046077;28;20362;-94
2021/07/14 06:00:16;;;;;;;37.22;24.67;;;19.50;99.90;;;;;;5052167;28;20122;-93
2021/07/14 06:02:44;;;;;;;42.00;25.13;;;19.50;99.90;;;;;;5055401;28;20068;-96
2021/07/14 06:05:29;;;;;;;31.48;23.85;;;19.50;99.90;;;;;;5042454;28;20051;-94
2021/07/14 06:08:05;;;;;;;36.00;24.58;;;19.50;99.90;;;;;;5038437;28;20055;-95
2021/07/14 06:10:52;;;;;;;34.42;24.60;;;19.50;99.90;;;;;;5045019;28;20052;-93
2021/07/14 06:13:35;;;;;;;32.70;23.85;;;19.50;99.90;;;;;;5042729;28;20108;-93
2021/07/14 06:16:13;;;;;;;33.65;23.63;;;19.50;99.90;;;;;;5040142;28;20045;-94
2021/07/14 06:18:42;;;;;;;31.33;22.83;;;19.50;99.90;;;;;;5035356;28;20056;-88
2021/07/14 06:21:11;;;;;;;32.55;23.08;;;19.60;99.90;;;;;;5061866;28;20037;-85
2021/07/14 06:23:38;;;;;;;38.58;24.35;;;19.60;99.90;;;;;;5074414;28;20065;-86
2021/07/14 06:26:05;;;;;;;31.95;23.45;;;19.50;99.90;;;;;;5040794;28;20446;-88
2021/07/14 06:28:32;;;;;;;34.72;24.25;;;19.60;99.90;;;;;;5054112;28;20056;-86
2021/07/14 06:30:59;;;;;;;32.47;23.60;;;19.60;99.90;;;;;;5037541;28;20120;-88
2021/07/14 06:33:29;;;;;;;35.40;24.33;;;19.60;99.90;;;;;;5051130;28;20161;-88
2021/07/14 06:35:59;;;;;;;32.30;24.95;;;19.50;99.90;;;;;;5021962;28;20395;-88
2021/07/14 06:38:26;;;;;;;35.58;25.55;;;19.70;99.90;;;;;;5038290;28;20060;-86
2021/07/14 06:40:53;;;;;;;30.33;24.40;;;19.70;99.90;;;;;;5054601;28;20124;-89
2021/07/14 06:43:20;;;;;;;33.45;24.42;;;19.80;99.90;;;;;;5054565;28;20081;-87
2021/07/14 06:45:47;;;;;;;32.17;25.00;;;19.80;99.90;;;;;;5038109;28;20056;-86
2021/07/14 06:48:15;;;;;;;32.38;23.88;;;19.80;99.90;;;;;;5053686;28;20037;-89
2021/07/14 06:50:42;;;;;;;33.10;24.45;;;19.90;99.90;;;;;;5053597;28;20120;-86
2021/07/14 06:53:10;;;;;;;34.03;24.83;;;19.90;99.90;;;;;;5037318;28;20192;-87
2021/07/14 06:55:37;;;;;;;35.80;24.77;;;19.90;99.90;;;;;;5021904;28;20046;-87
2021/07/14 06:58:03;;;;;;;33.13;24.50;;;20.00;99.90;;;;;;5037472;28;20045;-86
2021/07/14 07:00:35;;;;;;;28.92;23.02;;;20.00;99.90;;;;;;5038225;28;20071;-85
2021/07/14 07:03:02;;;;;;;34.50;25.25;;;20.00;99.90;;;;;;5037255;28;20045;-87
2021/07/14 07:05:29;;;;;;;31.83;24.58;;;20.00;99.90;;;;;;5053560;28;20124;-87
2021/07/14 07:07:56;;;;;;;29.23;24.38;;;20.00;99.90;;;;;;5021187;28;20088;-86
2021/07/14 07:10:23;;;;;;;32.75;24.58;;;20.00;99.90;;;;;;5036246;28;20053;-87
2021/07/14 07:12:50;;;;;;;39.78;25.65;;;20.00;99.90;;;;;;5037318;28;20046;-91
2021/07/14 07:15:18;;;;;;;31.48;24.73;;;20.00;99.90;;;;;;5038253;28;20116;-88
2021/07/14 07:17:46;;;;;;;39.42;26.63;;;20.20;99.90;;;;;;5037427;28;20064;-85
2021/07/14 07:20:14;;;;;;;35.90;27.02;;;20.10;99.90;;;;;;5053938;28;20045;-90
2021/07/14 07:22:43;;;;;;;34.28;25.05;;;20.10;99.90;;;;;;5052132;28;20037;-76
2021/07/14 07:25:11;;;;;;;39.95;25.15;;;20.20;99.90;;;;;;5035047;28;20072;-79
2021/07/14 07:27:39;;;;;;;36.55;25.63;;;20.20;99.90;;;;;;5035404;28;20057;-77
2021/07/14 07:30:08;;;;;;;34.53;26.35;;;20.30;99.90;;;;;;5068338;28;20041;-77
2021/07/14 07:32:35;;;;;;;33.08;26.98;;;20.30;99.90;;;;;;5034887;28;20448;-78
2021/07/14 07:35:04;;;;;;;33.17;26.05;;;20.40;99.90;;;;;;5051253;28;20406;-76
2021/07/14 07:37:31;;;;;;;37.50;26.48;;;20.40;99.90;;;;;;5050757;28;20048;-76
2021/07/14 07:39:58;;;;;;;36.85;26.70;;;20.50;99.90;;;;;;5035241;28;20383;-77
2021/07/14 07:42:25;;;;;;;33.17;25.88;;;20.40;99.90;;;;;;5034268;28;20112;-77
2021/07/14 07:44:52;;;;;;;32.35;25.25;;;20.50;99.90;;;;;;5051046;28;20120;-75
2021/07/14 07:47:19;;;;;;;31.73;25.05;;;20.60;99.90;;;;;;5050525;28;20116;-76
2021/07/14 07:49:47;;;;;;;35.40;26.20;;;20.60;99.90;;;;;;5053530;28;20116;-90
2021/07/14 07:52:18;;;;;;;35.08;26.55;;;20.70;99.90;;;;;;5039533;28;20058;-86
2021/07/14 07:54:46;;;;;;;42.28;27.08;;;20.70;99.90;;;;;;5070592;28;20062;-88
2021/07/14 07:57:13;;;;;;;33.70;26.75;;;20.70;99.90;;;;;;5035464;28;20049;-89
2021/07/14 07:59:41;;;;;;;38.22;26.52;;;20.70;99.90;;;;;;5053540;28;20042;-90
2021/07/14 08:02:09;;;;;;;32.30;26.45;;;20.70;99.90;;;;;;5037802;28;20073;-93
2021/07/14 08:04:36;;;;;;;34.00;25.45;;;20.70;99.90;;;;;;5037968;28;20052;-90
2021/07/14 08:07:03;;;;;;;33.72;25.13;;;20.80;99.90;;;;;;5037837;28;20045;-91
2021/07/14 08:09:30;;;;;;;32.90;24.83;;;20.80;99.90;;;;;;5037019;28;20077;-91
2021/07/14 08:11:58;;;;;;;33.88;24.70;;;20.70;99.90;;;;;;5037503;28;20080;-90
2021/07/14 08:14:25;;;;;;;31.42;24.90;;;20.80;99.90;;;;;;5027892;28;20049;-89
2021/07/14 08:16:52;;;;;;;35.45;24.60;;;20.80;99.90;;;;;;5043947;28;20042;-91
2021/07/14 08:19:19;;;;;;;29.63;23.95;;;20.80;99.90;;;;;;5053659;28;20041;-90
2021/07/14 08:21:46;;;;;;;32.70;24.23;;;20.80;99.90;;;;;;5012302;28;20192;-91
2021/07/14 08:24:13;;;;;;;33.75;24.30;;;20.80;99.90;;;;;;5036731;28;20042;-89
2021/07/14 08:26:40;;;;;;;32.42;24.33;;;20.80;99.90;;;;;;5036935;28;20080;-90
2021/07/14 08:29:07;;;;;;;32.08;25.05;;;20.80;99.90;;;;;;5053402;28;20041;-93
2021/07/14 08:31:35;;;;;;;35.03;24.58;;;20.80;99.90;;;;;;5052568;28;20517;-92
2021/07/14 08:34:02;;;;;;;30.63;23.05;;;20.80;99.90;;;;;;5053116;28;20041;-90
2021/07/14 08:36:29;;;;;;;27.70;23.17;;;20.80;99.90;;;;;;5051569;28;20053;-90
2021/07/14 08:38:58;;;;;;;33.85;24.52;;;20.80;99.90;;;;;;5036685;28;20068;-91
2021/07/14 08:41:26;;;;;;;32.28;24.65;;;20.80;99.90;;;;;;5036695;28;20038;-91
2021/07/14 08:43:54;;;;;;;33.83;25.17;;;20.90;99.90;;;;;;5070258;28;20041;-90
2021/07/14 08:46:26;;;;;;;30.20;23.35;;;20.90;99.90;;;;;;5052959;28;20037;-92
2021/07/14 08:48:54;;;;;;;29.08;23.15;;;21.00;99.90;;;;;;5036995;28;20049;-91
2021/07/14 08:51:21;;;;;;;30.08;23.40;;;21.10;99.90;;;;;;5035706;28;20041;-90
2021/07/14 08:53:50;;;;;;;28.75;22.83;;;21.10;99.90;;;;;;5020177;28;20552;-91
2021/07/14 08:56:17;;;;;;;31.13;23.38;;;21.20;99.90;;;;;;5036905;28;20132;-89
2021/07/14 08:58:43;;;;;;;27.73;23.98;;;21.20;99.90;;;;;;5037795;28;20075;-90
2021/07/14 09:01:10;;;;;;;27.45;22.50;;;21.30;99.90;;;;;;5036834;28;20038;-90
2021/07/14 09:03:38;;;;;;;28.92;21.73;;;21.40;99.90;;;;;;5052639;28;20112;-90
2021/07/14 09:06:05;;;;;;;26.25;21.00;;;21.50;99.90;;;;;;5052086;28;20046;-90
2021/07/14 09:08:32;;;;;;;26.42;20.15;;;21.60;99.90;;;;;;5062719;28;20067;-91
2021/07/14 09:11:00;;;;;;;23.30;19.15;;;21.80;99.90;;;;;;5032388;28;20058;-92
2021/07/14 09:13:37;;;;;;;24.38;18.67;;;22.10;99.90;;;;;;5048802;28;20052;-90
2021/07/14 09:16:06;;;;;;;22.77;17.77;;;22.30;99.90;;;;;;5032689;28;20048;-89
2021/07/14 09:18:34;;;;;;;22.33;17.55;;;22.40;99.90;;;;;;5031871;28;20137;-89
2021/07/14 09:21:02;;;;;;;23.20;17.42;;;22.40;99.90;;;;;;5015002;28;20050;-91
2021/07/14 09:23:31;;;;;;;21.50;16.23;;;22.50;99.90;;;;;;5034431;28;20414;-89
2021/07/14 09:26:04;;;;;;;21.42;16.10;;;22.60;99.90;;;;;;5049748;28;20043;-91
2021/07/14 09:28:36;;;;;;;20.60;16.40;;;22.80;99.90;;;;;;5017155;28;20046;-92
2021/07/14 09:31:12;;;;;;;22.67;16.33;;;22.90;99.90;;;;;;5054251;28;20046;-88
2021/07/14 09:33:44;;;;;;;21.35;15.30;;;23.00;99.90;;;;;;5034351;28;20478;-90
2021/07/14 09:36:11;;;;;;;19.85;15.15;;;23.10;99.90;;;;;;5053500;28;20140;-91
2021/07/14 09:38:40;;;;;;;19.00;15.07;;;23.30;99.90;;;;;;5034378;28;20069;-90
2021/07/14 09:41:10;;;;;;;16.50;13.70;;;23.40;99.90;;;;;;5051650;28;20278;-89
2021/07/14 09:43:42;;;;;;;24.20;14.52;;;23.50;99.90;;;;;;5050364;28;20506;-89
2021/07/14 09:46:11;;;;;;;19.52;15.07;;;23.50;99.90;;;;;;5049082;28;20080;-90
2021/07/14 09:48:43;;;;;;;20.40;15.32;;;23.50;99.90;;;;;;5031570;28;20045;-87
2021/07/14 09:51:19;;;;;;;18.17;14.80;;;23.30;99.90;;;;;;5032540;28;20125;-90
2021/07/14 09:53:54;;;;;;;20.33;15.45;;;23.30;99.90;;;;;;5048662;28;20046;-88
2021/07/14 09:56:25;;;;;;;17.85;14.23;;;23.30;99.90;;;;;;5034478;28;20046;-90
2021/07/14 09:59:12;;;;;;;18.15;14.25;;;23.30;99.90;;;;;;5055525;28;20042;-89
2021/07/14 10:01:48;;;;;;;19.88;14.70;;;23.40;99.90;;;;;;5021498;28;20124;-88
2021/07/14 10:04:34;;;;;;;19.50;14.50;;;23.60;99.90;;;;;;5054080;28;20081;-80
2021/07/14 10:07:26;;;;;;;18.90;15.10;;;23.70;99.90;;;;;;5036598;28;20045;-79
2021/07/14 10:09:55;;;;;;;21.98;14.98;;;23.70;99.90;;;;;;5037984;28;20120;-81
2021/07/14 10:12:27;;;;;;;17.40;13.82;;;23.80;99.90;;;;;;5039863;28;20079;-77
2021/07/14 10:14:56;;;;;;;19.40;14.48;;;23.80;99.90;;;;;;5055528;28;20431;-78
2021/07/14 10:17:39;;;;;;;20.40;14.23;;;23.70;99.90;;;;;;5055575;28;20128;-78
2021/07/14 10:20:21;;;;;;;19.58;13.88;;;23.50;99.90;;;;;;5074032;28;20045;-77
2021/07/14 10:22:50;;;;;;;17.67;13.45;;;23.70;99.90;;;;;;5072137;28;20049;-76
2021/07/14 10:25:18;;;;;;;18.25;13.95;;;23.80;99.90;;;;;;5055729;28;20037;-77
2021/07/14 10:27:53;;;;;;;19.50;14.25;;;23.90;99.90;;;;;;5055139;28;20091;-78
2021/07/14 10:30:21;;;;;;;21.30;14.90;;;23.90;99.90;;;;;;5022516;28;20045;-76
2021/07/14 10:32:51;;;;;;;17.25;13.90;;;23.80;99.90;;;;;;5038256;28;20046;-79
2021/07/14 10:35:24;;;;;;;19.55;14.23;;;23.80;99.90;;;;;;5056384;28;20054;-81
2021/07/14 10:37:56;;;;;;;21.23;14.77;;;23.70;99.90;;;;;;5071805;28;20045;-77
2021/07/14 10:40:24;;;;;;;25.48;15.48;;;23.70;99.90;;;;;;5054075;28;20041;-78
2021/07/14 10:42:52;;;;;;;18.30;14.38;;;23.70;99.90;;;;;;5055144;28;20068;-78
2021/07/14 10:45:20;;;;;;;18.65;13.55;;;23.70;99.90;;;;;;5039118;28;20107;-76
2021/07/14 10:47:48;;;;;;;24.38;14.20;;;23.60;99.90;;;;;;5072602;28;20478;-75
2021/07/14 10:50:17;;;;;;;17.30;13.85;;;23.70;99.90;;;;;;5039245;28;20045;-75
2021/07/14 10:52:45;;;;;;;17.92;14.48;;;23.60;99.90;;;;;;5055264;28;20045;-77
2021/07/14 10:55:19;;;;;;;20.45;15.20;;;23.50;99.90;;;;;;5055588;28;20041;-76
2021/07/14 10:57:46;;;;;;;19.30;14.90;;;23.60;99.90;;;;;;5055041;28;20037;-78
2021/07/14 11:00:16;;;;;;;20.98;14.68;;;23.50;99.90;;;;;;5039451;28;20088;-89
2021/07/14 11:02:50;;;;;;;22.33;14.23;;;23.40;99.90;;;;;;5038950;28;20054;-87
2021/07/14 11:05:45;;;;;;;18.23;13.95;;;23.30;99.90;;;;;;5058466;28;20067;-88
2021/07/14 11:08:47;;;;;;;19.90;14.25;;;23.30;99.90;;;;;;5040907;28;20206;-88
2021/07/14 11:11:22;;;;;;;17.98;14.07;;;23.30;99.90;;;;;;5055320;28;20045;-89
2021/07/14 11:14:09;;;;;;;20.88;14.23;;;23.30;99.90;;;;;;5054143;28;20048;-88
2021/07/14 11:16:41;;;;;;;17.20;13.82;;;23.30;99.90;;;;;;5053801;28;20048;-88
2021/07/14 11:19:14;;;;;;;18.67;14.30;;;23.20;99.90;;;;;;5054033;28;20042;-89
2021/07/14 11:21:54;;;;;;;19.95;14.05;;;23.20;99.90;;;;;;5053618;28;20486;-88
2021/07/14 11:24:42;;;;;;;19.60;14.43;;;23.20;99.90;;;;;;5037988;28;20050;-88
2021/07/14 11:27:30;;;;;;;18.15;15.48;;;23.30;99.90;;;;;;5053652;28;20064;-89
2021/07/14 11:30:06;;;;;;;17.48;14.63;;;23.20;99.90;;;;;;5053797;28;20053;-89
2021/07/14 11:32:39;;;;;;;18.00;14.77;;;23.10;99.90;;;;;;5053614;28;20133;-89
2021/07/14 11:35:22;;;;;;;18.63;14.68;;;23.00;99.90;;;;;;5053275;28;20049;-87
2021/07/14 11:37:54;;;;;;;27.65;15.20;;;23.00;99.90;;;;;;5053183;28;20465;-88
2021/07/14 11:40:20;;;;;;;18.73;15.23;;;22.90;99.90;;;;;;5053075;28;20102;-87
2021/07/14 11:42:54;;;;;;;20.77;14.88;;;22.80;99.90;;;;;;5052699;28;20049;-86
2021/07/14 11:45:42;;;;;;;20.50;15.32;;;22.80;99.90;;;;;;5053070;28;20091;-87
2021/07/14 11:48:24;;;;;;;19.15;14.07;;;22.80;99.90;;;;;;5053115;28;20116;-88
2021/07/14 11:50:58;;;;;;;18.20;13.70;;;22.70;99.90;;;;;;5053118;28;20065;-89
2021/07/14 11:53:29;;;;;;;17.00;13.15;;;22.70;99.90;;;;;;5053489;28;20073;-88
2021/07/14 11:56:05;;;;;;;16.17;13.15;;;22.70;99.90;;;;;;5052892;28;20519;-86
2021/07/14 11:58:49;;;;;;;14.73;11.40;;;22.80;99.90;;;;;;5049242;28;20414;-87
2021/07/14 12:01:16;;;;;;;14.93;12.80;;;22.80;99.90;;;;;;5062478;28;20065;-87
2021/07/14 12:04:02;;;;;;;15.15;11.80;;;22.80;99.90;;;;;;5036261;28;20430;-88
2021/07/14 12:06:39;;;;;;;17.75;11.82;;;22.80;99.90;;;;;;5036765;28;20132;-90
2021/07/14 12:09:12;;;;;;;16.45;11.93;;;22.80;99.90;;;;;;5036664;28;20583;-90
2021/07/14 12:12:03;;;;;;;14.35;11.65;;;22.90;99.90;;;;;;5035982;28;20046;-88
2021/07/14 12:14:37;;;;;;;15.23;11.35;;;22.90;99.90;;;;;;5052865;28;20452;-87
2021/07/14 12:17:12;;;;;;;16.58;10.95;;;22.80;99.90;;;;;;5035926;28;20046;-87
2021/07/14 12:19:46;;;;;;;14.83;11.50;;;22.80;99.90;;;;;;5052218;28;20045;-88
2021/07/14 12:22:14;;;;;;;14.88;11.43;;;22.70;99.90;;;;;;5043352;28;20045;-88
2021/07/14 12:24:53;;;;;;;12.95;10.00;;;22.80;99.90;;;;;;5051686;28;20483;-88
2021/07/14 12:27:23;;;;;;;17.23;10.43;;;22.80;99.90;;;;;;5052368;28;20500;-88
2021/07/14 12:30:08;;;;;;;15.10;10.40;;;22.80;99.90;;;;;;5036153;28;20117;-89
2021/07/14 12:32:52;;;;;;;14.20;10.02;;;22.80;99.90;;;;;;5052854;28;20100;-89
2021/07/14 12:35:22;;;;;;;15.23;10.32;;;22.80;99.90;;;;;;5053310;28;20512;-89
2021/07/14 12:37:56;;;;;;;17.23;10.20;;;22.70;99.90;;;;;;5051988;28;20045;-89
2021/07/14 12:40:28;;;;;;;14.35;9.77;;;22.70;99.90;;;;;;5053072;28;20045;-87
2021/07/14 12:42:58;;;;;;;16.10;10.02;;;22.60;99.90;;;;;;5035302;28;20049;-88
2021/07/14 12:45:27;;;;;;;22.10;10.90;;;22.60;99.90;;;;;;5052055;28;20125;-89
2021/07/14 12:47:55;;;;;;;13.57;10.02;;;22.50;99.90;;;;;;5051113;28;20041;-87
2021/07/14 12:50:24;;;;;;;15.05;10.43;;;22.40;99.90;;;;;;5041673;28;20045;-89
2021/07/14 12:52:57;;;;;;;16.25;11.05;;;22.40;99.90;;;;;;5018963;28;20433;-87
2021/07/14 12:55:25;;;;;;;15.38;10.98;;;22.30;99.90;;;;;;5034948;28;20091;-85
2021/07/14 12:57:59;;;;;;;17.98;11.73;;;22.30;99.90;;;;;;5034144;28;20088;-84